createdAt,value
2022-11-19T00:01:26.765Z,49.6
2022-11-19T00:07:04.319Z,49.6
2022-11-19T00:12:48.052Z,49.5
2022-11-19T00:18:10.595Z,49.4
2022-11-19T00:23:32.808Z,49.4
2022-11-19T00:28:55.551Z,49.4
2022-11-19T00:35:03.748Z,49.3
2022-11-19T00:40:10.890Z,49.3
2022-11-19T00:45:49.477Z,49.3
2022-11-19T00:51:27.637Z,49.3
2022-11-19T00:57:04.660Z,49.2
2022-11-19T01:02:27.512Z,49.2
2022-11-19T01:07:50.515Z,49.1
2022-11-19T01:13:27.756Z,49.1
2022-11-19T01:19:05.364Z,49.1
2022-11-19T01:24:43.997Z,49
2022-11-19T01:30:10.507Z,48.9
2022-11-19T01:35:32.390Z,48.9
2022-11-19T01:41:10.354Z,48.9
2022-11-19T01:46:47.608Z,48.9
2022-11-19T01:52:10.008Z,48.8
2022-11-19T01:57:48.325Z,48.8
2022-11-19T02:03:26.170Z,48.8
2022-11-19T02:09:04.690Z,48.7
2022-11-19T02:14:26.575Z,48.7
2022-11-19T02:20:03.813Z,48.6
2022-11-19T02:25:46.785Z,48.4
2022-11-19T02:31:08.207Z,49.6
2022-11-19T02:36:44.789Z,51.1
2022-11-19T02:42:23.130Z,52.7
2022-11-19T02:47:30.129Z,54.3
2022-11-19T02:53:07.455Z,55.8
2022-11-19T02:58:29.126Z,57.4
2022-11-19T03:04:08.422Z,58.1
2022-11-19T03:09:29.871Z,58.1
2022-11-19T03:15:07.566Z,58.1
2022-11-19T03:20:29.541Z,58.6
2022-11-19T03:25:51.311Z,60
2022-11-19T03:31:13.808Z,61.6
2022-11-19T03:36:51.068Z,62.1
2022-11-19T03:42:29.599Z,62.1
2022-11-19T03:48:06.502Z,62.1
2022-11-19T03:53:46.376Z,62.1
2022-11-19T03:59:29.292Z,62
2022-11-19T04:05:07.008Z,61.9
2022-11-19T04:10:45.658Z,61.9
2022-11-19T04:16:21.836Z,61.9
2022-11-19T04:21:44.102Z,61.8
2022-11-19T04:26:51.152Z,61.8
2022-11-19T04:32:28.725Z,61.8
2022-11-19T04:37:34.896Z,61.7
2022-11-19T04:43:12.962Z,61.6
2022-11-19T04:48:19.559Z,61.6
2022-11-19T04:54:03.574Z,61.5
2022-11-19T04:59:42.498Z,61.5
2022-11-19T05:05:05.264Z,61.4
2022-11-19T05:10:27.947Z,61.4
2022-11-19T05:16:10.254Z,61.3
2022-11-19T05:21:47.456Z,61.3
2022-11-19T05:27:25.135Z,61.3
2022-11-19T05:33:10.938Z,61.2
2022-11-19T05:38:53.334Z,61.1
2022-11-19T05:44:30.869Z,61.1
2022-11-19T05:50:09.402Z,61.1
2022-11-19T05:55:47.325Z,61
2022-11-19T06:01:25.884Z,60.9
2022-11-19T06:07:04.292Z,60.9
2022-11-19T06:12:45.271Z,60.9
2022-11-19T06:18:23.593Z,60.8
2022-11-19T06:24:03.420Z,60.8
2022-11-19T06:29:26.087Z,60.7
2022-11-19T06:35:04.089Z,60.7
2022-11-19T06:40:49.016Z,60.6
2022-11-19T06:46:31.877Z,60.6
2022-11-19T06:52:11.106Z,60.5
2022-11-19T06:57:51.201Z,60.5
2022-11-19T07:03:29.144Z,60.4
2022-11-19T07:09:09.528Z,60.4
2022-11-19T07:14:47.288Z,60.3
2022-11-19T07:20:11.274Z,60.3
2022-11-19T07:25:51.022Z,60.2
2022-11-19T07:31:29.095Z,60.1
2022-11-19T07:37:08.262Z,60.1
2022-11-19T07:42:52.113Z,60.1
2022-11-19T07:48:35.986Z,60
2022-11-19T07:54:02.933Z,59.9
2022-11-19T07:59:32.349Z,59.9
2022-11-19T08:05:15.501Z,59.8
2022-11-19T08:10:53.036Z,59.8
2022-11-19T08:16:31.073Z,59.7
2022-11-19T08:22:13.808Z,59.7
2022-11-19T08:27:51.537Z,59.6
2022-11-19T08:33:32.325Z,59.6
2022-11-19T08:39:12.062Z,59.5
2022-11-19T08:44:49.731Z,59.4
2022-11-19T08:50:27.557Z,59.4
2022-11-19T08:56:05.902Z,59.6
2022-11-19T09:01:46.944Z,59.9
2022-11-19T09:07:31.456Z,60.1
2022-11-19T09:12:54.040Z,60.5
2022-11-19T09:18:36.520Z,60.8
2022-11-19T09:24:13.984Z,61.3
2022-11-19T09:29:57.762Z,61.8
2022-11-19T09:35:35.274Z,62.1
2022-11-19T09:41:13.122Z,62.6
2022-11-19T09:46:57.742Z,63.1
2022-11-19T09:52:34.797Z,63.5
2022-11-19T09:58:12.877Z,63.6
2022-11-19T10:03:36.178Z,63.6
2022-11-19T10:09:13.588Z,63.6
2022-11-19T10:14:57.843Z,63.8
2022-11-19T10:20:25.819Z,63.9
2022-11-19T10:26:04.851Z,63.9
2022-11-19T10:31:42.957Z,64.3
2022-11-19T10:37:20.937Z,64.5
2022-11-19T10:43:04.044Z,64.5
2022-11-19T10:48:45.084Z,64.8
2022-11-19T10:54:26.628Z,64.8
2022-11-19T10:59:53.937Z,64.8
2022-11-19T11:05:19.248Z,64.8
2022-11-19T11:10:59.094Z,64.8
2022-11-19T11:16:37.947Z,64.8
2022-11-19T11:22:16.226Z,64.7
2022-11-19T11:27:58.692Z,64.6
2022-11-19T11:33:41.794Z,64.8
2022-11-19T11:39:08.959Z,65
2022-11-19T11:44:51.393Z,64.9
2022-11-19T11:50:35.967Z,64.9
2022-11-19T11:55:58.496Z,64.9
2022-11-19T12:01:05.436Z,64.9
2022-11-19T12:06:41.591Z,64.9
2022-11-19T12:12:25.350Z,64.8
2022-11-19T12:18:08.833Z,64.8
2022-11-19T12:23:31.513Z,64.7
2022-11-19T12:29:08.988Z,64.7
2022-11-19T12:34:46.448Z,64.6
2022-11-19T12:40:24.423Z,64.6
2022-11-19T12:46:03.404Z,64.5
2022-11-19T12:51:43.342Z,64.5
2022-11-19T12:57:26.845Z,64.4
2022-11-19T13:03:05.110Z,64.4
2022-11-19T13:08:31.039Z,64.4
2022-11-19T13:13:38.217Z,64.3
2022-11-19T13:19:16.442Z,64.3
2022-11-19T13:24:53.920Z,64.2
2022-11-19T13:30:31.736Z,64.1
2022-11-19T13:36:10.278Z,64.1
2022-11-19T13:41:53.249Z,64.1
2022-11-19T13:47:58.336Z,64
2022-11-19T13:53:37.147Z,63.9
2022-11-19T13:59:18.221Z,63.9
2022-11-19T14:04:56.057Z,63.9
2022-11-19T14:10:38.810Z,63.8
2022-11-19T14:16:01.017Z,63.8
2022-11-19T14:21:12.656Z,63.7
2022-11-19T14:26:35.241Z,63.6
2022-11-19T14:32:13.428Z,63.6
2022-11-19T14:37:52.204Z,63.6
2022-11-19T14:43:34.721Z,63.5
2022-11-19T14:48:58.349Z,63.4
2022-11-19T14:54:36.596Z,63.4
2022-11-19T15:00:14.640Z,63.3
2022-11-19T15:05:52.790Z,63.3
2022-11-19T15:11:37.024Z,63.3
2022-11-19T15:16:58.916Z,63.2
2022-11-19T15:22:20.448Z,63.1
2022-11-19T15:28:05.072Z,63.1
2022-11-19T15:33:13.830Z,63
2022-11-19T15:39:11.664Z,62.9
2022-11-19T15:44:34.488Z,62.9
2022-11-19T15:49:41.538Z,62.8
2022-11-19T15:55:10.171Z,62.8
2022-11-19T16:00:32.702Z,62.8
2022-11-19T16:05:56.466Z,62.7
2022-11-19T16:11:20.437Z,62.6
2022-11-19T16:16:43.427Z,62.4
2022-11-19T16:22:11.881Z,62.3
2022-11-19T16:27:53.931Z,62.2
2022-11-19T16:33:32.436Z,62.2
2022-11-19T16:39:17.043Z,62.1
2022-11-19T16:44:55.901Z,62
2022-11-19T16:50:18.105Z,62
2022-11-19T16:55:55.805Z,61.9
2022-11-19T17:01:25.403Z,61.9
2022-11-19T17:07:05.846Z,61.8
2022-11-19T17:12:43.390Z,61.8
2022-11-19T17:18:12.644Z,61.7
2022-11-19T17:23:50.198Z,61.6
2022-11-19T17:29:16.963Z,61.5
2022-11-19T17:34:59.776Z,61.4
2022-11-19T17:40:21.701Z,61.4
2022-11-19T17:45:45.088Z,61.3
2022-11-19T17:51:19.685Z,61.3
2022-11-19T17:56:41.913Z,61.2
2022-11-19T18:02:20.753Z,61.1
2022-11-19T18:08:00.797Z,61.1
2022-11-19T18:13:08.267Z,61
2022-11-19T18:18:16.521Z,60.9
2022-11-19T18:23:56.527Z,60.9
2022-11-19T18:29:39.494Z,60.8
2022-11-19T18:35:02.887Z,60.8
2022-11-19T18:40:27.819Z,60.7
2022-11-19T18:46:12.693Z,60.6
2022-11-19T18:51:53.770Z,60.6
2022-11-19T18:57:33.321Z,60.6
2022-11-19T19:02:48.415Z,60.5
2022-11-19T19:08:18.677Z,60.4
2022-11-19T19:13:43.100Z,60.4
2022-11-19T19:19:26.427Z,60.3
2022-11-19T19:24:55.263Z,60.3
2022-11-19T19:30:37.124Z,60.2
2022-11-19T19:36:06.320Z,60.1
2022-11-19T19:41:46.060Z,60.1
2022-11-19T19:47:31.117Z,60
2022-11-19T19:53:10.764Z,59.9
2022-11-19T19:58:50.622Z,59.9
2022-11-19T20:04:15.855Z,59.8
2022-11-19T20:09:59.407Z,59.8
2022-11-19T20:15:38.567Z,59.7
2022-11-19T20:21:07.231Z,59.6
2022-11-19T20:26:47.738Z,59.6
2022-11-19T20:32:27.669Z,59.5
2022-11-19T20:38:05.708Z,59.4
2022-11-19T20:43:28.518Z,59.4
2022-11-19T20:49:16.688Z,59.3
2022-11-19T20:54:54.698Z,59.3
2022-11-19T21:00:36.969Z,59.2
2022-11-19T21:06:19.815Z,59.1
2022-11-19T21:11:48.061Z,59.1
2022-11-19T21:17:09.913Z,58.9
2022-11-19T21:22:51.691Z,58.9
2022-11-19T21:28:34.454Z,58.8
2022-11-19T21:34:13.197Z,58.8
2022-11-19T21:39:53.589Z,58.7
2022-11-19T21:45:32.345Z,58.1
2022-11-19T21:51:10.324Z,54.9
2022-11-19T21:56:53.611Z,53.6
2022-11-19T22:02:31.506Z,53.2
2022-11-19T22:08:09.375Z,53.1
2022-11-19T22:13:37.648Z,53.1
2022-11-19T22:19:00.108Z,53.1
2022-11-19T22:24:38.349Z,53.1
2022-11-19T22:30:22.243Z,53.1
2022-11-19T22:36:03.852Z,53.1
2022-11-19T22:41:28.770Z,53.1
2022-11-19T22:46:20.066Z,53.1
2022-11-19T22:51:58.041Z,53.1
2022-11-19T22:57:05.481Z,53
2022-11-19T23:02:28.923Z,53
2022-11-19T23:08:11.981Z,53
2022-11-19T23:13:34.660Z,52.9
2022-11-19T23:19:13.025Z,52.9
2022-11-19T23:24:53.569Z,52.9
2022-11-19T23:30:31.038Z,52.9
2022-11-19T23:36:15.364Z,52.9
2022-11-19T23:41:38.695Z,52.8
2022-11-19T23:47:21.119Z,52.8
2022-11-19T23:52:59.215Z,52.8
2022-11-19T23:58:37.944Z,52.7
